Annapolis, California
Current Conditions -  °F | °C
As of 7:32 AM on Saturday 22 Nov 2014 (Local Time) from KUKI Reporting Station
Overcast Overcast  
Wind Chill: 56°   Ceiling: 2500
Heat Index: 56°   Visibility: 9mi
Dew Point: 54°   Wind: 0mph
Humidity: 93%   Direction: NA
Pressure: 30.02"   Gusts: NA
Location:  38.71°N, 123.35°W
Report Text: KUKI 221532Z AUTO 00000KT 9SM BKN025 OVC047 13/12 A3002 RMK AO2 RAE32 P0001 T01330122
Loading
Personal Weather Stations






























Interactive Weather Map New forecast layout! Learn more

10-Day Weather Forecast

Advertisements
Track Severe Weather on mobile